Time;durP1;ratioP1;P1;durP2;ratioP2;P2;SDS_P1;SDS_P2;PMS_P1;PMS_P2;Temp;Humidity;BMP_temperature;BMP_pressure;BME280_temperature;BME280_humidity;BME280_pressure;Samples;Min_cycle;Max_cycle;Signal;HPM_P1;HPM_P2
2021/05/04 00:02:07;;;;;;;5.87;4.23;;;;;;;7.42;65.43;95884.81;6248583;23;20373;-86
2021/05/04 00:04:33;;;;;;;6.70;4.83;;;;;;;7.43;65.47;95883.59;6249874;23;20504;-87
2021/05/04 00:07:00;;;;;;;6.30;3.70;;;;;;;7.38;66.28;95887.16;6249941;22;20582;-87
2021/05/04 00:09:27;;;;;;;5.50;3.97;;;;;;;7.42;65.90;95882.16;6249136;23;20386;-87
2021/05/04 00:11:53;;;;;;;6.10;3.90;;;;;;;7.40;65.82;95881.97;6249644;23;20421;-86
2021/05/04 00:14:19;;;;;;;6.97;4.90;;;;;;;7.39;65.89;95879.84;6249774;23;20410;-87
2021/05/04 00:16:46;;;;;;;8.43;4.27;;;;;;;7.37;66.23;95871.56;6249822;22;20452;-87
2021/05/04 00:19:12;;;;;;;5.70;4.30;;;;;;;7.33;66.54;95869.22;6250117;23;20460;-87
2021/05/04 00:21:38;;;;;;;7.00;4.60;;;;;;;7.31;66.84;95869.06;6249992;23;20966;-87
2021/05/04 00:24:06;;;;;;;5.20;3.90;;;;;;;7.31;66.46;95866.38;6250519;23;20401;-87
2021/05/04 00:26:33;;;;;;;5.33;4.20;;;;;;;7.28;67.14;95864.03;6249692;22;20414;-87
2021/05/04 00:28:59;;;;;;;9.20;4.33;;;;;;;7.29;66.51;95860.09;6249354;23;20416;-86
2021/05/04 00:31:25;;;;;;;4.77;4.13;;;;;;;7.26;66.81;95861.88;6248126;23;20473;-87
2021/05/04 00:33:53;;;;;;;4.60;4.20;;;;;;;7.27;66.86;95857.94;6249213;23;20410;-87
2021/05/04 00:36:19;;;;;;;6.53;4.67;;;;;;;7.29;67.15;95852.78;6249074;22;20499;-87
2021/05/04 00:38:54;;;;;;;4.80;4.07;;;;;;;7.31;66.74;95844.19;6249911;23;20379;-86
2021/05/04 00:41:20;;;;;;;6.53;4.30;;;;;;;7.33;66.55;95839.00;6249222;23;20856;-86
2021/05/04 00:43:48;;;;;;;5.10;4.53;;;;;;;7.35;66.58;95823.81;6249751;23;20481;-86
2021/05/04 00:46:14;;;;;;;5.10;4.27;;;;;;;7.37;66.14;95834.00;6248725;22;20931;-86
2021/05/04 00:48:40;;;;;;;9.73;4.60;;;;;;;7.43;66.35;95832.59;6249736;23;20429;-86
2021/05/04 00:51:06;;;;;;;5.60;4.60;;;;;;;7.42;65.84;95828.47;6249065;23;20485;-87
2021/05/04 00:53:32;;;;;;;5.23;4.73;;;;;;;7.38;66.27;95827.41;6249087;23;20391;-86
2021/05/04 00:55:59;;;;;;;5.40;4.10;;;;;;;7.36;66.71;95825.22;6249091;22;20530;-86
2021/05/04 00:58:26;;;;;;;6.93;4.40;;;;;;;7.34;66.83;95825.06;6249206;23;20454;-86
2021/05/04 01:00:53;;;;;;;9.53;4.10;;;;;;;7.28;66.83;95827.19;6249242;23;20955;-86
2021/05/04 01:03:20;;;;;;;10.30;5.10;;;;;;;7.20;67.54;95818.38;6248981;23;20389;-86
2021/05/04 01:05:47;;;;;;;5.13;3.97;;;;;;;7.15;67.85;95811.19;6249341;22;20448;-87
2021/05/04 01:08:13;;;;;;;7.33;4.40;;;;;;;7.17;67.67;95808.72;6249185;23;20446;-87
2021/05/04 01:10:40;;;;;;;6.03;4.67;;;;;;;7.15;67.46;95805.84;6249048;23;20452;-88
2021/05/04 01:13:07;;;;;;;6.47;4.47;;;;;;;7.16;67.47;95804.59;6249630;23;20856;-86
2021/05/04 01:15:33;;;;;;;8.30;5.20;;;;;;;7.17;67.99;95806.03;6249256;22;20404;-86
2021/05/04 01:18:00;;;;;;;4.80;4.27;;;;;;;7.12;68.16;95798.13;6249133;23;20361;-88
2021/05/04 01:20:26;;;;;;;7.17;4.67;;;;;;;7.12;67.87;95798.13;6248759;23;20405;-87
2021/05/04 01:22:53;;;;;;;7.50;4.80;;;;;;;7.13;67.91;95796.88;6249558;23;20418;-87
2021/05/04 01:25:20;;;;;;;4.07;3.67;;;;;;;7.12;67.99;95798.84;6249270;22;20368;-87
2021/05/04 01:27:46;;;;;;;4.83;3.87;;;;;;;7.14;67.90;95787.59;6249198;23;20883;-87
2021/05/04 01:30:13;;;;;;;3.90;3.50;;;;;;;7.13;67.77;95786.16;6249957;23;20767;-87
2021/05/04 01:32:39;;;;;;;4.10;3.70;;;;;;;7.12;67.67;95784.72;6250494;23;20445;-87
2021/05/04 01:35:06;;;;;;;6.33;4.37;;;;;;;7.10;67.65;95777.22;6250109;23;20452;-87
2021/05/04 01:37:32;;;;;;;9.97;5.30;;;;;;;7.22;66.80;95770.28;6252415;22;20469;-87
2021/05/04 01:39:59;;;;;;;6.77;4.47;;;;;;;7.34;66.25;95762.59;6261734;22;20437;-86
2021/05/04 01:42:26;;;;;;;5.90;4.20;;;;;;;7.32;66.38;95763.16;6270911;22;20422;-86
2021/05/04 01:44:52;;;;;;;4.47;4.07;;;;;;;7.33;66.45;95764.56;6249900;23;20478;-87
2021/05/04 01:47:18;;;;;;;5.20;4.03;;;;;;;7.37;65.82;95756.19;6249127;22;20502;-86
2021/05/04 01:49:44;;;;;;;6.03;4.20;;;;;;;7.37;65.74;95754.22;6249617;23;20373;-86
2021/05/04 01:52:11;;;;;;;5.60;4.10;;;;;;;7.44;65.57;95758.16;6248884;23;20406;-87
2021/05/04 01:54:38;;;;;;;5.90;3.70;;;;;;;7.39;66.02;95756.38;6248450;23;20490;-86
2021/05/04 01:57:05;;;;;;;6.10;3.87;;;;;;;7.40;65.76;95750.47;6248286;22;20446;-86
2021/05/04 01:59:32;;;;;;;7.10;3.57;;;;;;;7.42;65.77;95733.84;6248458;23;20390;-86
2021/05/04 02:01:59;;;;;;;3.83;3.43;;;;;;;7.47;65.79;95732.94;6249539;23;20773;-86
2021/05/04 02:04:30;;;;;;;5.33;3.70;;;;;;;7.49;65.33;95736.53;6249471;23;20500;-87
2021/05/04 02:06:56;;;;;;;4.80;3.60;;;;;;;7.50;65.20;95735.28;6250275;22;20476;-86
2021/05/04 02:09:22;;;;;;;4.70;3.77;;;;;;;7.55;64.71;95734.38;6248134;23;20556;-87
2021/05/04 02:11:48;;;;;;;5.63;3.70;;;;;;;7.52;64.96;95724.00;6248176;23;20477;-87
2021/05/04 02:14:15;;;;;;;5.97;4.37;;;;;;;7.47;64.90;95722.94;6247836;23;20424;-87
2021/05/04 02:16:41;;;;;;;6.00;3.70;;;;;;;7.49;65.49;95725.78;6248092;22;20503;-88
2021/05/04 02:19:08;;;;;;;6.43;4.20;;;;;;;7.44;65.51;95715.22;6248451;23;20469;-87
2021/05/04 02:21:35;;;;;;;5.10;4.40;;;;;;;7.42;65.79;95710.38;6248806;23;20388;-87
2021/05/04 02:24:01;;;;;;;7.17;3.60;;;;;;;7.42;65.48;95698.94;6248820;23;20468;-87
2021/05/04 02:26:27;;;;;;;3.50;3.20;;;;;;;7.38;65.44;95701.97;6248859;22;20493;-87
2021/05/04 02:28:53;;;;;;;4.20;3.53;;;;;;;7.40;65.78;95698.75;6247516;23;20377;-87
2021/05/04 02:31:20;;;;;;;4.20;3.80;;;;;;;7.45;65.83;95701.28;6248806;23;20428;-87
2021/05/04 02:33:46;;;;;;;10.90;4.17;;;;;;;7.42;65.34;95698.94;6248810;23;20501;-88
2021/05/04 02:36:12;;;;;;;5.37;4.10;;;;;;;7.40;65.23;95702.16;6249133;22;20472;-87
2021/05/04 02:38:39;;;;;;;6.10;4.50;;;;;;;7.44;65.92;95697.16;6249534;23;20804;-88
2021/05/04 02:41:06;;;;;;;6.63;3.80;;;;;;;7.43;65.47;95686.94;6248495;23;20412;-87
2021/05/04 02:43:33;;;;;;;5.17;4.17;;;;;;;7.48;65.18;95686.06;6249124;23;20516;-87
2021/05/04 02:45:59;;;;;;;4.70;3.20;;;;;;;7.59;65.16;95674.25;6249043;22;20951;-86
2021/05/04 02:48:26;;;;;;;4.53;4.10;;;;;;;7.59;65.00;95661.56;6248964;23;20409;-87
2021/05/04 02:50:53;;;;;;;5.63;3.50;;;;;;;7.63;65.02;95663.88;6249602;23;20735;-86
2021/05/04 02:53:19;;;;;;;5.07;4.10;;;;;;;7.54;65.29;95668.53;6248812;23;20397;-87
2021/05/04 02:55:45;;;;;;;5.20;3.90;;;;;;;7.58;65.99;95662.09;6248439;22;20484;-87
2021/05/04 02:58:12;;;;;;;4.53;4.10;;;;;;;7.51;65.87;95653.50;6249018;23;20398;-86
2021/05/04 03:00:38;;;;;;;5.23;4.20;;;;;;;7.55;65.93;95648.47;6248817;23;20559;-87
2021/05/04 03:03:05;;;;;;;4.20;3.53;;;;;;;7.58;65.98;95652.06;6248945;23;20373;-86
2021/05/04 03:05:32;;;;;;;5.57;3.53;;;;;;;7.53;66.31;95648.31;6248277;22;20472;-86
2021/05/04 03:07:58;;;;;;;4.07;3.17;;;;;;;7.58;65.85;95644.00;6247598;23;20402;-86
2021/05/04 03:10:24;;;;;;;4.70;3.43;;;;;;;7.63;65.97;95637.03;6248163;23;20455;-85
2021/05/04 03:12:51;;;;;;;4.80;3.67;;;;;;;7.68;65.40;95636.13;6251400;23;20442;-87
2021/05/04 03:15:17;;;;;;;10.50;4.20;;;;;;;7.62;65.51;95633.63;6250599;23;20913;-87
2021/05/04 03:17:43;;;;;;;6.70;3.70;;;;;;;7.73;65.47;95629.88;6250508;22;20957;-86
2021/05/04 03:20:10;;;;;;;6.67;4.13;;;;;;;7.65;65.53;95626.47;6249217;23;20783;-86
2021/05/04 03:22:37;;;;;;;4.30;3.23;;;;;;;7.68;65.43;95628.06;6250038;23;20408;-86
2021/05/04 03:25:04;;;;;;;4.90;3.80;;;;;;;7.68;65.15;95620.03;6249950;23;20446;-86
2021/05/04 03:27:30;;;;;;;4.30;3.50;;;;;;;7.79;64.77;95608.94;6250255;22;20467;-86
2021/05/04 03:29:56;;;;;;;6.13;3.27;;;;;;;7.79;65.15;95603.56;6250941;23;20472;-87
2021/05/04 03:32:22;;;;;;;5.40;3.70;;;;;;;7.83;64.47;95599.25;6250833;23;20387;-86
2021/05/04 03:34:48;;;;;;;5.40;3.97;;;;;;;7.85;64.13;95598.72;6250462;23;20489;-85
2021/05/04 03:37:14;;;;;;;6.60;3.93;;;;;;;7.85;64.21;95593.34;6250328;22;20527;-86
2021/05/04 03:39:41;;;;;;;4.30;3.63;;;;;;;7.87;64.19;95590.81;6250675;23;20409;-86
2021/05/04 03:42:08;;;;;;;3.70;3.40;;;;;;;7.92;64.31;95590.66;6250471;23;20394;-87
2021/05/04 03:44:34;;;;;;;4.33;3.90;;;;;;;7.89;64.17;95593.69;6251154;23;20377;-87
2021/05/04 03:47:00;;;;;;;5.70;3.63;;;;;;;7.89;64.13;95589.00;6250870;22;20457;-85
2021/05/04 03:49:26;;;;;;;4.60;3.63;;;;;;;7.92;63.96;95584.56;6250837;23;20434;-86
2021/05/04 03:51:52;;;;;;;3.27;2.97;;;;;;;7.98;63.59;95585.06;6250170;23;20432;-86
2021/05/04 03:54:18;;;;;;;5.60;3.10;;;;;;;7.95;63.94;95592.25;6250922;23;20436;-86
2021/05/04 03:56:45;;;;;;;4.13;3.50;;;;;;;8.03;63.25;95590.25;6250554;22;20529;-86
2021/05/04 03:59:11;;;;;;;4.07;3.10;;;;;;;8.06;62.79;95583.78;6251332;23;20768;-86
2021/05/04 04:01:37;;;;;;;3.63;3.10;;;;;;;8.09;61.95;95582.72;6250731;23;20456;-86
2021/05/04 04:04:04;;;;;;;10.90;3.70;;;;;;;8.17;62.35;95582.69;6250743;23;20439;-87
2021/05/04 04:06:31;;;;;;;3.90;3.50;;;;;;;8.22;62.35;95571.03;6250494;22;20813;-86
2021/05/04 04:08:57;;;;;;;4.30;3.50;;;;;;;8.25;62.24;95566.53;6251753;23;20402;-89
2021/05/04 04:11:23;;;;;;;3.57;2.67;;;;;;;8.35;61.96;95559.34;6251613;23;20369;-86
2021/05/04 04:13:50;;;;;;;5.73;3.90;;;;;;;8.47;61.38;95555.72;6251394;23;20502;-86
2021/05/04 04:16:16;;;;;;;7.63;3.17;;;;;;;8.49;61.04;95557.84;6253333;22;20468;-87
2021/05/04 04:18:42;;;;;;;3.13;2.80;;;;;;;8.46;61.26;95556.25;6254192;23;20398;-87
2021/05/04 04:21:08;;;;;;;7.23;3.10;;;;;;;8.46;61.49;95546.22;6257633;23;20433;-86
2021/05/04 04:23:34;;;;;;;2.93;2.60;;;;;;;8.43;61.51;95546.59;6271078;22;20434;-86
2021/05/04 04:26:00;;;;;;;4.20;3.10;;;;;;;8.45;61.81;95536.75;6254515;22;20453;-86
2021/05/04 04:28:26;;;;;;;5.50;3.10;;;;;;;8.46;61.64;95540.84;6252670;23;20451;-86
2021/05/04 04:30:53;;;;;;;4.80;3.10;;;;;;;8.43;61.28;95541.22;6257017;23;20402;-86
2021/05/04 04:33:23;;;;;;;2.97;2.77;;;;;;;8.38;61.95;95532.09;6259528;23;20441;-86
2021/05/04 04:35:49;;;;;;;4.60;3.30;;;;;;;8.44;61.80;95526.50;6251625;22;20536;-86
2021/05/04 04:38:16;;;;;;;4.27;3.27;;;;;;;8.45;62.05;95536.75;6252335;23;20410;-87
2021/05/04 04:40:43;;;;;;;2.67;2.17;;;;;;;8.51;61.80;95529.19;6251174;23;20700;-86
2021/05/04 04:43:09;;;;;;;4.77;3.33;;;;;;;8.50;61.87;95535.09;6253121;23;20402;-85
2021/05/04 04:45:35;;;;;;;3.90;3.33;;;;;;;8.55;61.70;95526.81;6255205;22;20377;-85
2021/05/04 04:48:02;;;;;;;4.13;3.73;;;;;;;8.48;61.87;95526.88;6269555;22;20725;-86
2021/05/04 04:50:29;;;;;;;7.23;3.77;;;;;;;8.49;61.92;95520.22;6254587;23;20430;-87
2021/05/04 04:52:55;;;;;;;5.00;2.90;;;;;;;8.50;62.18;95516.97;6258856;23;20375;-87
2021/05/04 04:55:21;;;;;;;4.60;2.90;;;;;;;8.60;61.55;95522.50;6267085;23;20456;-87
2021/05/04 04:57:47;;;;;;;5.00;3.50;;;;;;;8.68;61.35;95511.69;6253582;23;20529;-86
2021/05/04 05:00:14;;;;;;;4.20;2.50;;;;;;;8.61;61.70;95510.47;6253987;23;20433;-87
2021/05/04 05:02:40;;;;;;;3.77;2.90;;;;;;;8.67;61.73;95518.31;6251755;23;20408;-86
2021/05/04 05:05:08;;;;;;;3.20;2.30;;;;;;;8.65;61.41;95518.16;6251804;23;20955;-86
2021/05/04 05:07:34;;;;;;;7.40;3.03;;;;;;;8.71;61.38;95516.66;6250704;22;20467;-86
2021/05/04 05:10:00;;;;;;;3.97;2.93;;;;;;;8.75;61.63;95518.97;6249794;23;20465;-87
2021/05/04 05:12:27;;;;;;;4.27;2.77;;;;;;;8.76;61.60;95515.75;6250589;23;20796;-86
2021/05/04 05:14:53;;;;;;;4.23;2.80;;;;;;;8.82;61.59;95512.84;6252230;23;20365;-87
2021/05/04 05:17:20;;;;;;;2.83;2.53;;;;;;;8.93;60.83;95520.47;6249470;22;20449;-87
2021/05/04 05:19:46;;;;;;;3.53;2.67;;;;;;;8.90;61.03;95522.28;6250185;23;20489;-87
2021/05/04 05:22:13;;;;;;;5.40;3.17;;;;;;;9.09;60.58;95524.47;6250384;23;20399;-87
2021/05/04 05:24:39;;;;;;;3.20;2.57;;;;;;;9.14;60.50;95523.56;6250093;23;20404;-87
2021/05/04 05:27:06;;;;;;;6.00;2.63;;;;;;;9.17;60.79;95517.06;6249428;22;20414;-85
2021/05/04 05:29:34;;;;;;;6.13;3.03;;;;;;;9.22;60.31;95505.34;6249885;23;20855;-87
2021/05/04 05:32:00;;;;;;;4.33;2.70;;;;;;;9.26;60.28;95510.34;6250506;23;20404;-86
2021/05/04 05:34:26;;;;;;;9.83;2.90;;;;;;;9.26;60.40;95503.00;6249296;23;20419;-87
2021/05/04 05:36:52;;;;;;;6.10;2.93;;;;;;;9.37;59.96;95504.50;6251752;22;20580;-87
2021/05/04 05:39:19;;;;;;;4.83;2.80;;;;;;;9.39;60.29;95501.97;6250050;23;20493;-88
2021/05/04 05:41:46;;;;;;;4.53;2.83;;;;;;;9.44;59.81;95495.63;6251367;23;20727;-87
2021/05/04 05:44:13;;;;;;;5.40;2.77;;;;;;;9.51;60.02;95494.88;6249792;23;20464;-87
2021/05/04 05:46:39;;;;;;;15.07;3.37;;;;;;;9.60;60.02;95486.88;6251807;22;20488;-87
2021/05/04 05:49:05;;;;;;;6.00;2.80;;;;;;;9.63;58.86;95488.44;6249257;23;20392;-87
2021/05/04 05:51:31;;;;;;;5.33;2.77;;;;;;;9.78;58.96;95492.25;6249427;23;20379;-87
2021/05/04 05:53:57;;;;;;;4.50;3.17;;;;;;;9.82;58.56;95484.47;6248744;23;20750;-88
2021/05/04 05:56:24;;;;;;;9.00;2.43;;;;;;;9.85;58.64;95478.69;6250243;22;20445;-87
2021/05/04 05:58:51;;;;;;;3.23;2.70;;;;;;;9.92;58.64;95487.97;6249858;23;20388;-87
2021/05/04 06:01:17;;;;;;;4.73;2.30;;;;;;;10.03;57.86;95484.75;6249695;23;20408;-87
2021/05/04 06:03:55;;;;;;;3.17;2.30;;;;;;;10.10;58.24;95479.28;6260241;23;20903;-91
2021/05/04 06:06:21;;;;;;;3.87;3.13;;;;;;;10.22;57.43;95471.44;6261430;22;20697;-87
2021/05/04 06:08:47;;;;;;;3.27;2.80;;;;;;;10.26;57.23;95473.72;6249304;23;20425;-87
2021/05/04 06:11:13;;;;;;;5.57;3.00;;;;;;;10.30;57.18;95466.69;6251066;23;20377;-89
2021/05/04 06:13:40;;;;;;;4.27;2.73;;;;;;;10.40;56.27;95472.81;6250298;23;20373;-87
2021/05/04 06:16:07;;;;;;;3.00;2.47;;;;;;;10.53;56.04;95467.06;6250333;22;20447;-88
2021/05/04 06:18:33;;;;;;;4.07;2.80;;;;;;;10.62;56.05;95469.06;6250200;23;20531;-86
2021/05/04 06:20:59;;;;;;;9.23;2.77;;;;;;;10.70;56.21;95463.59;6250119;23;20438;-89
2021/05/04 06:23:26;;;;;;;4.20;2.90;;;;;;;10.86;55.10;95462.09;6250940;23;20774;-87
2021/05/04 06:25:52;;;;;;;4.63;2.77;;;;;;;10.98;55.19;95454.88;6250841;22;20429;-88
2021/05/04 06:28:18;;;;;;;4.30;2.67;;;;;;;11.00;54.60;95451.59;6249443;23;20447;-87
2021/05/04 06:30:45;;;;;;;5.87;3.40;;;;;;;11.16;54.77;95453.47;6248351;23;20977;-84
2021/05/04 06:33:12;;;;;;;4.60;3.47;;;;;;;11.21;54.38;95457.19;6249886;23;20469;-88
2021/05/04 06:35:41;;;;;;;4.00;2.50;;;;;;;11.27;54.49;95457.63;6249596;22;20373;-88
2021/05/04 06:38:08;;;;;;;5.27;2.53;;;;;;;11.42;53.76;95451.97;6249259;23;20721;-87
2021/05/04 06:40:34;;;;;;;2.83;2.20;;;;;;;11.53;53.80;95454.09;6251789;23;20447;-88
2021/05/04 06:43:01;;;;;;;4.60;2.10;;;;;;;11.59;53.07;95457.22;6251937;23;20488;-87
2021/05/04 06:45:28;;;;;;;3.00;2.70;;;;;;;11.72;52.85;95453.41;6251970;22;20394;-88
2021/05/04 06:47:57;;;;;;;5.20;2.43;;;;;;;11.74;52.69;95451.56;6251238;23;20887;-89
2021/05/04 06:50:23;;;;;;;3.63;2.73;;;;;;;11.79;51.81;95445.16;6251779;23;20441;-91
2021/05/04 06:52:49;;;;;;;5.23;3.00;;;;;;;11.87;51.81;95452.41;6252695;23;20373;-90
2021/05/04 06:55:16;;;;;;;6.03;2.80;;;;;;;11.98;52.06;95449.84;6253886;23;20402;-88
2021/05/04 06:57:42;;;;;;;3.30;2.67;;;;;;;12.08;50.93;95449.81;6254446;22;20454;-88
2021/05/04 07:00:09;;;;;;;2.53;2.30;;;;;;;12.10;51.02;95444.53;6252056;23;20433;-90
2021/05/04 07:02:37;;;;;;;3.37;2.13;;;;;;;12.15;50.82;95433.41;6253810;23;20389;-88
2021/05/04 07:05:06;;;;;;;2.83;2.10;;;;;;;12.18;50.89;95447.81;6250877;23;20413;-90
2021/05/04 07:07:33;;;;;;;3.40;2.20;;;;;;;12.26;51.03;95437.53;6250664;22;20491;-89
2021/05/04 07:09:59;;;;;;;8.63;3.37;;;;;;;12.37;50.64;95428.13;6251116;23;20422;-91
2021/05/04 07:12:25;;;;;;;3.73;1.97;;;;;;;12.51;50.49;95420.94;6252351;23;20433;-89
2021/05/04 07:14:53;;;;;;;4.27;2.50;;;;;;;12.68;49.47;95432.28;6253857;23;20390;-90
2021/05/04 07:17:19;;;;;;;2.77;2.10;;;;;;;12.81;48.58;95415.53;6255157;22;20731;-90
2021/05/04 07:19:45;;;;;;;6.63;1.90;;;;;;;12.96;48.52;95430.72;6263185;22;20931;-92
2021/05/04 07:22:12;;;;;;;2.90;2.33;;;;;;;13.11;48.82;95418.81;6263816;22;20380;-92
2021/05/04 07:24:39;;;;;;;3.73;1.90;;;;;;;13.27;47.68;95419.84;6269354;22;20402;-92
2021/05/04 07:27:06;;;;;;;3.20;2.23;;;;;;;13.33;47.22;95418.25;6271121;22;20380;-89
2021/05/04 07:29:34;;;;;;;3.97;2.30;;;;;;;13.54;46.64;95433.06;6272307;22;20461;-92
2021/05/04 07:32:00;;;;;;;2.20;2.00;;;;;;;13.75;46.63;95428.31;6271831;22;20401;-92
2021/05/04 07:34:26;;;;;;;2.43;1.80;;;;;;;14.06;45.93;95419.34;6272981;22;20413;-95
2021/05/04 07:36:52;;;;;;;2.53;2.13;;;;;;;14.53;45.35;95420.88;6260745;22;20505;-92
2021/05/04 07:39:20;;;;;;;2.40;2.20;;;;;;;14.82;44.23;95423.19;6261981;23;20388;-92
2021/05/04 07:41:46;;;;;;;2.60;2.40;;;;;;;15.15;44.30;95423.06;6255944;23;20438;-92
2021/05/04 07:44:12;;;;;;;2.73;1.80;;;;;;;15.63;42.47;95431.22;6257649;23;20400;-91
2021/05/04 07:46:38;;;;;;;4.70;1.97;;;;;;;15.85;41.99;95418.84;6260199;22;20410;-93
2021/05/04 07:49:07;;;;;;;3.80;2.00;;;;;;;16.06;41.04;95434.97;6259936;23;20341;-93
2021/05/04 07:51:33;;;;;;;2.50;2.03;;;;;;;16.14;40.81;95429.22;6264170;23;20703;-92
2021/05/04 07:53:59;;;;;;;4.10;2.03;;;;;;;16.40;40.86;95413.56;6255233;23;20433;-92
2021/05/04 07:56:27;;;;;;;16.83;2.20;;;;;;;16.47;40.55;95413.28;6262740;22;20429;-90
2021/05/04 07:58:53;;;;;;;3.57;1.73;;;;;;;16.25;40.43;95405.97;6263631;23;20394;-90
2021/05/04 08:01:20;;;;;;;5.20;1.53;;;;;;;16.14;40.23;95393.84;6267655;22;20396;-91
2021/05/04 08:03:46;;;;;;;5.67;1.77;;;;;;;16.32;40.40;95396.81;6264085;23;20702;-91
2021/05/04 08:06:12;;;;;;;2.67;1.90;;;;;;;16.43;39.82;95387.84;6258257;22;20912;-92
2021/05/04 08:08:39;;;;;;;2.47;1.83;;;;;;;16.56;39.64;95395.38;6258757;23;20402;-91
2021/05/04 08:11:05;;;;;;;4.00;1.90;;;;;;;16.55;39.71;95407.56;6258802;23;20387;-86
2021/05/04 08:13:33;;;;;;;3.80;1.90;;;;;;;16.48;39.61;95382.00;6260269;23;20474;-89
2021/05/04 08:16:03;;;;;;;3.27;2.07;;;;;;;16.33;40.10;95409.81;6261422;22;20460;-89
2021/05/04 08:18:30;;;;;;;6.77;1.80;;;;;;;16.37;40.33;95393.69;6260115;23;20459;-89
2021/05/04 08:20:57;;;;;;;5.03;2.27;;;;;;;16.26;39.98;95399.22;6274146;22;20461;-88
2021/05/04 08:23:25;;;;;;;9.53;2.23;;;;;;;16.29;39.67;95387.81;6265310;23;20414;-89
2021/05/04 08:25:52;;;;;;;3.50;1.90;;;;;;;16.38;39.59;95394.41;6258527;22;20562;-90
2021/05/04 08:28:18;;;;;;;3.50;2.20;;;;;;;16.66;39.26;95387.00;6255861;23;20391;-89
2021/05/04 08:30:45;;;;;;;6.20;2.17;;;;;;;16.35;39.20;95388.13;6254333;23;20425;-88
2021/05/04 08:33:11;;;;;;;6.93;2.97;;;;;;;16.44;39.18;95392.00;6257962;23;20402;-90
2021/05/04 08:35:37;;;;;;;3.60;1.97;;;;;;;16.39;39.38;95409.44;6256362;22;20463;-88
2021/05/04 08:38:04;;;;;;;9.97;2.40;;;;;;;16.50;38.96;95386.88;6254434;23;20522;-89
2021/05/04 08:40:30;;;;;;;1.97;1.63;;;;;;;16.72;38.61;95398.91;6261732;23;20417;-92
2021/05/04 08:42:57;;;;;;;2.50;2.10;;;;;;;16.85;38.51;95400.91;6262511;23;20390;-88
2021/05/04 08:45:23;;;;;;;5.13;2.00;;;;;;;17.29;38.20;95391.50;6257227;23;20441;-89
2021/05/04 08:47:51;;;;;;;5.43;1.90;;;;;;;17.48;37.44;95388.31;6258912;23;20476;-90
2021/05/04 08:50:19;;;;;;;7.30;2.17;;;;;;;17.54;37.08;95391.34;6256814;23;20402;-87
2021/05/04 08:52:46;;;;;;;5.13;2.13;;;;;;;17.45;37.46;95381.34;6254064;23;20496;-88
2021/05/04 08:55:13;;;;;;;4.53;2.40;;;;;;;17.60;37.49;95382.78;6257532;23;20777;-90
2021/05/04 08:57:40;;;;;;;4.23;1.83;;;;;;;17.86;37.48;95391.44;6258768;22;20522;-89
2021/05/04 09:00:08;;;;;;;4.33;2.70;;;;;;;18.01;36.63;95386.03;6252832;23;20406;-89
2021/05/04 09:02:36;;;;;;;4.57;1.70;;;;;;;18.06;36.70;95395.81;6253316;23;20406;-88
2021/05/04 09:05:16;;;;;;;3.47;2.30;;;;;;;18.09;37.42;95372.75;6256894;23;20457;-89
2021/05/04 09:07:43;;;;;;;4.63;1.97;;;;;;;18.16;36.60;95390.13;6254894;22;20417;-89
2021/05/04 09:10:24;;;;;;;2.87;1.90;;;;;;;18.12;36.94;95381.72;6254697;23;20398;-87
2021/05/04 09:12:55;;;;;;;5.53;2.23;;;;;;;17.90;37.31;95402.56;6258993;23;20450;-90
2021/05/04 09:16:12;;;;;;;4.30;2.20;;;;;;;17.91;37.03;95390.34;6258004;23;20406;-91
2021/05/04 09:21:36;;;;;;;7.33;2.20;;;;;;;17.41;37.12;95372.28;6256732;23;20383;-89
2021/05/04 09:24:24;;;;;;;5.60;2.10;;;;;;;17.17;37.36;95384.75;6254233;23;20473;-90
2021/05/04 09:27:05;;;;;;;5.97;2.70;;;;;;;17.19;37.28;95377.38;6260170;22;20501;-89
2021/05/04 09:29:33;;;;;;;4.30;2.30;;;;;;;17.18;37.49;95380.72;6261506;23;20449;-89
2021/05/04 09:32:14;;;;;;;8.10;2.93;;;;;;;17.37;37.95;95375.53;6260102;23;20890;-90
2021/05/04 09:34:49;;;;;;;2.93;2.23;;;;;;;17.56;37.79;95368.94;6258515;23;20374;-89
2021/05/04 09:37:30;;;;;;;4.40;1.77;;;;;;;17.90;37.72;95373.25;6262675;22;20445;-90
2021/05/04 09:40:16;;;;;;;3.37;1.50;;;;;;;18.14;37.56;95352.47;6258352;23;20390;-90
2021/05/04 09:42:42;;;;;;;6.23;2.80;;;;;;;17.88;36.65;95347.88;6259059;23;20501;-85
2021/05/04 09:45:21;;;;;;;3.70;1.90;;;;;;;17.62;36.97;95369.22;6257440;23;20406;-87
2021/05/04 09:47:47;;;;;;;3.50;1.73;;;;;;;17.48;37.32;95382.84;6254589;22;20468;-83
2021/05/04 09:50:13;;;;;;;11.03;2.70;;;;;;;17.58;37.55;95379.94;6256301;23;20796;-87
2021/05/04 09:52:43;;;;;;;2.37;1.47;;;;;;;17.58;37.33;95355.38;6257683;23;20494;-87
2021/05/04 09:55:11;;;;;;;6.87;2.53;;;;;;;17.57;37.69;95371.03;6255855;23;20433;-85
2021/05/04 09:57:42;;;;;;;3.57;1.90;;;;;;;17.57;36.76;95376.50;6256763;22;20482;-85
2021/05/04 10:00:11;;;;;;;6.03;2.30;;;;;;;17.59;36.99;95387.53;6255611;23;20383;-84
2021/05/04 10:02:39;;;;;;;7.07;2.70;;;;;;;17.18;37.56;95359.59;6256299;23;20406;-89
2021/05/04 10:05:06;;;;;;;3.60;2.23;;;;;;;17.27;38.38;95377.75;6254282;23;20467;-87
2021/05/04 10:07:33;;;;;;;3.33;2.20;;;;;;;17.50;37.75;95363.88;6254037;22;20418;-86
2021/05/04 10:10:02;;;;;;;3.43;2.97;;;;;;;17.53;36.92;95365.38;6257612;23;20730;-87
2021/05/04 10:12:29;;;;;;;4.00;2.47;;;;;;;17.72;38.02;95363.53;6255212;23;20470;-86
2021/05/04 10:14:58;;;;;;;3.20;2.23;;;;;;;17.85;36.34;95368.94;6252289;23;20414;-86
2021/05/04 10:17:24;;;;;;;2.60;1.90;;;;;;;17.68;36.77;95366.75;6255573;22;20540;-86
2021/05/04 10:19:51;;;;;;;2.93;2.30;;;;;;;17.45;37.28;95353.38;6253993;23;20481;-85
2021/05/04 10:22:18;;;;;;;4.50;2.13;;;;;;;17.59;37.72;95373.16;6255244;23;20465;-87
2021/05/04 10:24:45;;;;;;;5.97;2.20;;;;;;;17.62;37.13;95374.66;6257996;23;20391;-86
2021/05/04 10:27:13;;;;;;;6.57;2.10;;;;;;;17.61;37.02;95365.78;6257334;22;20418;-90
2021/05/04 10:29:42;;;;;;;8.80;2.17;;;;;;;17.73;37.14;95357.44;6257115;23;20428;-89
2021/05/04 10:32:13;;;;;;;3.00;2.20;;;;;;;18.03;37.22;95361.56;6258564;23;20428;-90
2021/05/04 10:34:41;;;;;;;7.53;2.10;;;;;;;18.03;36.80;95372.47;6270696;22;20386;-89
2021/05/04 10:37:31;;;;;;;2.27;2.07;;;;;;;17.98;37.02;95359.28;6258936;22;20456;-88
2021/05/04 10:39:58;;;;;;;4.00;2.20;;;;;;;17.86;36.92;95355.97;6254570;23;20403;-89
2021/05/04 10:42:34;;;;;;;2.93;2.00;;;;;;;17.76;37.21;95372.59;6257015;23;20413;-91
2021/05/04 10:45:11;;;;;;;2.30;1.73;;;;;;;17.78;37.77;95389.06;6256221;23;20868;-90
2021/05/04 10:47:46;;;;;;;6.50;2.00;;;;;;;17.93;37.37;95369.28;6257248;22;20441;-91
2021/05/04 10:50:14;;;;;;;3.00;1.70;;;;;;;17.92;37.27;95359.69;6259608;23;20440;-90
2021/05/04 10:52:59;;;;;;;3.80;2.30;;;;;;;18.00;36.86;95365.53;6258328;23;20489;-88
2021/05/04 10:55:46;;;;;;;4.00;1.97;;;;;;;17.93;37.89;95344.00;6256860;23;20406;-88
2021/05/04 10:58:16;;;;;;;2.13;2.00;;;;;;;17.89;37.92;95338.38;6268159;22;20596;-88
2021/05/04 11:00:53;;;;;;;2.57;2.30;;;;;;;17.83;36.89;95351.75;6265167;23;20441;-89
2021/05/04 11:03:49;;;;;;;2.50;2.30;;;;;;;18.03;37.01;95347.19;6269180;22;20417;-89
2021/05/04 11:06:46;;;;;;;5.33;1.90;;;;;;;17.76;37.11;95344.63;6262646;22;20422;-89
2021/05/04 11:09:19;;;;;;;6.83;2.50;;;;;;;17.98;37.13;95351.75;6262602;23;20391;-90
2021/05/04 11:11:51;;;;;;;2.20;1.90;;;;;;;18.39;37.63;95359.00;6258920;23;20353;-89
2021/05/04 11:14:31;;;;;;;2.40;2.10;;;;;;;18.37;36.57;95337.78;6253771;23;20394;-89
2021/05/04 11:17:03;;;;;;;7.00;2.23;;;;;;;18.04;36.34;95340.44;6260093;22;20501;-91
2021/05/04 11:19:31;;;;;;;4.83;2.80;;;;;;;17.73;37.00;95341.06;6261652;23;20481;-90
2021/05/04 11:22:06;;;;;;;4.07;2.47;;;;;;;17.75;37.64;95349.34;6251574;23;20770;-90
2021/05/04 11:24:41;;;;;;;3.00;2.20;;;;;;;17.84;37.83;95369.53;6252884;23;20710;-89
2021/05/04 11:27:19;;;;;;;3.50;2.37;;;;;;;17.76;36.54;95344.63;6249970;22;20508;-89
2021/05/04 11:29:47;;;;;;;7.17;1.93;;;;;;;17.90;37.03;95332.31;6251856;23;20453;-89
2021/05/04 11:32:14;;;;;;;6.97;2.37;;;;;;;17.94;37.53;95337.94;6255010;23;20880;-89
2021/05/04 11:34:42;;;;;;;5.70;2.60;;;;;;;17.91;37.10;95346.66;6260175;23;20426;-90
2021/05/04 11:37:11;;;;;;;4.87;2.30;;;;;;;17.60;37.55;95330.94;6254778;22;20787;-87
2021/05/04 11:39:38;;;;;;;3.03;2.33;;;;;;;17.59;38.31;95334.97;6254397;23;20448;-88
2021/05/04 11:42:05;;;;;;;9.57;2.53;;;;;;;17.67;38.17;95335.34;6255854;23;20847;-88
2021/05/04 11:44:33;;;;;;;4.53;1.90;;;;;;;17.69;37.82;95340.19;6258071;23;20406;-88